Time;durP1;ratioP1;P1;durP2;ratioP2;P2;SDS_P1;SDS_P2;PMS_P1;PMS_P2;Temp;Humidity;BMP_temperature;BMP_pressure;BME280_temperature;BME280_humidity;BME280_pressure;Samples;Min_cycle;Max_cycle;Signal;HPM_P1;HPM_P2
2023/07/20 07:19:54;;;;;;;13.07;7.25;;;;;;;18.97;63.63;96522.22;2093083;28;20554;-57
2023/07/20 07:20:56;;;;;;;10.18;2.40;;;;;;;19.08;63.23;96522.19;2089417;28;20188;-57
2023/07/20 07:21:57;;;;;;;5.47;2.10;;;;;;;19.50;63.16;96528.53;2083067;28;20201;-57
2023/07/20 07:23:01;;;;;;;7.65;2.30;;;;;;;19.51;62.74;96527.56;2082562;28;20586;-57
2023/07/20 07:25:16;;;;;;;7.40;2.30;;;;;;;19.26;63.51;96526.94;2085285;28;20573;-57
2023/07/20 07:26:24;;;;;;;7.40;2.40;;;;;;;19.68;62.43;96523.50;2081967;28;20852;-57
2023/07/20 07:27:25;;;;;;;6.35;2.13;;;;;;;19.83;62.13;96530.22;2082968;28;20534;-58
2023/07/20 07:28:28;;;;;;;6.53;2.42;;;;;;;20.01;61.30;96521.66;2074144;28;20197;-57
2023/07/20 07:29:29;;;;;;;11.18;2.05;;;;;;;19.99;61.04;96526.28;2073691;28;20332;-57
2023/07/20 07:30:31;;;;;;;8.65;4.07;;;;;;;19.87;61.56;96523.69;2073143;28;21239;-58
2023/07/20 07:31:38;;;;;;;14.52;3.70;;;;;;;19.70;61.35;96529.53;2074639;28;20197;-57
2023/07/20 07:32:40;;;;;;;8.95;2.10;;;;;;;19.72;61.70;96525.78;2073954;28;20198;-57
2023/07/20 07:41:04;;;;;;;7.03;2.40;;;;;;;19.38;61.94;96533.03;2084167;28;20584;-57
2023/07/20 07:42:05;;;;;;;14.73;2.80;;;;;;;19.83;61.64;96530.22;2082414;28;20197;-58
2023/07/20 07:43:08;;;;;;;11.82;2.40;;;;;;;20.16;60.08;96519.53;2077471;28;20235;-57
2023/07/20 07:44:10;;;;;;;6.93;2.40;;;;;;;20.09;60.32;96524.53;2070986;28;20279;-58
2023/07/20 07:49:06;;;;;;;12.88;2.42;;;;;;;20.19;60.95;96521.94;2115590;27;20543;-58
2023/07/20 07:50:09;;;;;;;7.57;2.13;;;;;;;20.39;60.59;96529.00;2113536;28;20553;-58
2023/07/20 07:51:13;;;;;;;7.45;2.10;;;;;;;20.51;59.66;96520.97;2098034;28;20198;-58
2023/07/20 07:52:14;;;;;;;9.52;2.00;;;;;;;20.90;59.02;96523.78;2099789;28;20196;-58
2023/07/20 07:53:16;;;;;;;6.95;2.80;;;;;;;20.68;59.38;96522.97;2092049;28;20220;-58
2023/07/20 07:54:18;;;;;;;8.18;2.80;;;;;;;20.58;59.01;96518.59;2092179;28;20680;-57
2023/07/20 07:55:19;;;;;;;11.23;4.15;;;;;;;20.44;58.72;96527.75;2091385;28;20200;-59
2023/07/20 07:56:24;;;;;;;9.00;6.43;;;;;;;20.65;58.33;96525.06;2084282;28;20192;-59
2023/07/20 07:57:26;;;;;;;13.32;5.85;;;;;;;20.57;58.18;96525.72;2074048;28;20193;-59
2023/07/20 07:58:27;;;;;;;21.77;17.30;;;;;;;20.61;58.12;96520.97;2074440;28;20209;-59
2023/07/20 07:59:31;;;;;;;27.52;24.67;;;;;;;20.74;56.63;96526.09;2074514;28;20255;-59
2023/07/20 08:00:32;;;;;;;31.33;19.60;;;;;;;20.87;56.58;96530.19;2076776;28;20230;-59
2023/07/20 08:01:34;;;;;;;47.08;39.35;;;;;;;21.07;55.41;96522.25;2077001;28;20204;-59
2023/07/20 08:04:38;;;;;;;73.25;65.70;;;;;;;20.95;56.61;96532.16;2090819;28;20565;-58
2023/07/20 08:05:41;;;;;;;71.20;63.90;;;;;;;21.27;56.21;96528.44;2090461;28;20199;-58
2023/07/20 08:06:42;;;;;;;62.92;56.30;;;;;;;21.55;55.70;96528.63;2081351;28;20193;-58
2023/07/20 08:07:44;;;;;;;47.72;38.53;;;;;;;21.94;54.85;96533.06;2079068;28;20284;-58
2023/07/20 08:08:45;;;;;;;63.97;58.08;;;;;;;21.87;54.32;96521.34;2079279;28;20208;-58
2023/07/20 08:09:47;;;;;;;37.53;29.70;;;;;;;22.12;54.27;96525.22;2080006;28;20208;-58
2023/07/20 08:10:48;;;;;;;142.00;130.52;;;;;;;22.37;53.17;96523.75;2080558;28;20316;-58
2023/07/20 08:11:50;;;;;;;231.00;213.35;;;;;;;21.59;53.69;96508.75;2073686;28;20230;-58
2023/07/20 08:12:52;;;;;;;195.85;181.98;;;;;;;21.55;55.13;96518.00;2072744;28;20286;-58
2023/07/20 08:13:53;;;;;;;600.75;555.33;;;;;;;21.94;53.99;96520.63;2080616;28;20204;-58
2023/07/20 08:14:54;;;;;;;841.10;771.05;;;;;;;21.36;54.41;96518.81;2083035;28;20600;-58
2023/07/20 08:15:56;;;;;;;1031.40;935.83;;;;;;;21.37;54.47;96516.00;2084434;28;20688;-58
2023/07/20 08:16:58;;;;;;;1127.05;999.90;;;;;;;21.53;53.99;96517.25;2082230;28;20283;-58
2023/07/20 08:17:59;;;;;;;1300.63;999.90;;;;;;;21.81;53.74;96520.94;2081404;28;20916;-57
2023/07/20 08:22:03;;;;;;;1540.63;999.90;;;;;;;20.91;54.55;96517.47;2084116;28;20592;-58
2023/07/20 08:23:05;;;;;;;1576.72;999.90;;;;;;;21.05;54.75;96518.88;2078269;28;20227;-58
2023/07/20 08:25:09;;;;;;;1498.15;999.90;;;;;;;20.61;55.95;96518.31;2093878;27;20558;-57
2023/07/20 08:26:10;;;;;;;1460.32;999.90;;;;;;;21.14;55.09;96522.53;2094806;28;20566;-58
2023/07/20 08:27:12;;;;;;;1615.25;999.90;;;;;;;21.40;54.77;96519.38;2094753;28;20203;-58
2023/07/20 08:28:14;;;;;;;1423.30;999.90;;;;;;;21.64;54.73;96522.47;2074823;28;20765;-58
2023/07/20 08:29:16;;;;;;;1618.32;999.90;;;;;;;22.07;53.63;96522.97;2074128;28;20198;-58
2023/07/20 08:30:22;;;;;;;1634.90;999.90;;;;;;;22.52;52.59;96526.78;2072514;28;20248;-58
2023/07/20 08:31:24;;;;;;;1587.05;999.90;;;;;;;22.50;52.30;96515.47;2072399;28;20206;-58
2023/07/20 08:33:37;;;;;;;1651.00;999.90;;;;;;;21.70;55.37;96523.75;2092596;27;20561;-58
2023/07/20 08:35:47;;;;;;;1334.30;999.90;;;;;;;21.13;57.84;96527.03;2084834;27;20575;-58
2023/07/20 08:37:56;;;;;;;1323.75;999.90;;;;;;;20.95;57.26;96523.34;2087809;28;20560;-58
2023/07/20 08:40:08;;;;;;;1414.53;999.90;;;;;;;21.04;57.08;96525.19;2083853;28;20565;-57
2023/07/20 08:41:11;;;;;;;1208.43;999.90;;;;;;;20.95;57.97;96526.00;2080762;28;20563;-57
2023/07/20 08:42:14;;;;;;;1069.07;950.38;;;;;;;21.29;57.02;96533.59;2081013;28;20204;-58
2023/07/20 08:43:18;;;;;;;1071.70;950.83;;;;;;;21.82;56.24;96527.06;2082506;28;20231;-59
2023/07/20 08:44:20;;;;;;;1159.53;992.88;;;;;;;22.13;55.84;96524.22;2084533;28;20606;-59
2023/07/20 08:45:25;;;;;;;1566.57;999.90;;;;;;;22.27;54.17;96522.91;2082404;28;20735;-58
2023/07/20 08:46:28;;;;;;;1615.13;999.90;;;;;;;22.46;52.96;96525.56;2082930;28;20311;-58
2023/07/20 08:47:30;;;;;;;1267.55;999.90;;;;;;;21.99;51.32;96526.34;2082258;28;20204;-59
2023/07/20 08:48:33;;;;;;;1048.35;947.20;;;;;;;21.80;52.11;96519.25;2082513;28;20589;-58
2023/07/20 08:49:35;;;;;;;1228.35;999.90;;;;;;;21.93;51.90;96528.72;2082743;28;20188;-59
2023/07/20 08:50:37;;;;;;;1043.72;940.55;;;;;;;21.82;52.21;96530.56;2081847;28;20196;-59
2023/07/20 08:51:40;;;;;;;1049.78;947.90;;;;;;;21.77;52.44;96526.66;2083101;28;20204;-59
2023/07/20 08:52:41;;;;;;;1056.95;955.33;;;;;;;21.54;52.67;96532.22;2081417;28;20231;-59
2023/07/20 08:53:45;;;;;;;1212.95;999.90;;;;;;;21.49;52.11;96523.84;2081301;28;20200;-59
2023/07/20 08:54:47;;;;;;;796.30;729.13;;;;;;;21.97;52.03;96523.00;2086464;28;20193;-59
2023/07/20 08:55:52;;;;;;;786.88;719.03;;;;;;;22.28;51.43;96519.28;2087913;28;20224;-59
2023/07/20 08:56:55;;;;;;;782.83;715.97;;;;;;;22.72;51.34;96524.06;2094469;28;20296;-59
2023/07/20 08:57:58;;;;;;;870.33;798.45;;;;;;;23.46;50.71;96524.88;2092970;28;20356;-59
2023/07/20 08:59:01;;;;;;;793.45;727.95;;;;;;;23.63;50.80;96521.38;2081837;28;20201;-59
2023/07/20 09:00:13;;;;;;;800.85;735.08;;;;;;;23.77;50.92;96522.66;2082336;28;20538;-59
2023/07/20 09:01:15;;;;;;;835.95;768.30;;;;;;;23.75;50.15;96521.94;2081490;28;20211;-59
2023/07/20 09:02:18;;;;;;;920.97;842.60;;;;;;;23.74;50.29;96525.59;2076125;28;20189;-59
2023/07/20 09:03:21;;;;;;;959.72;880.00;;;;;;;23.85;50.33;96523.72;2078957;28;20255;-59
2023/07/20 09:04:22;;;;;;;1005.33;915.92;;;;;;;23.65;50.36;96515.88;2082520;28;20710;-58
2023/07/20 09:05:24;;;;;;;974.17;889.85;;;;;;;23.55;50.60;96523.94;2082300;28;20216;-59
2023/07/20 09:06:27;;;;;;;990.45;905.15;;;;;;;23.28;51.64;96519.53;2080936;28;20277;-59
2023/07/20 09:07:30;;;;;;;968.78;884.92;;;;;;;23.06;51.32;96508.31;2080952;28;20201;-59
2023/07/20 09:08:32;;;;;;;1078.88;977.15;;;;;;;22.76;51.72;96528.91;2084621;28;20197;-59
2023/07/20 09:09:39;;;;;;;1030.75;939.17;;;;;;;22.39;53.04;96520.97;2078271;28;20201;-58
2023/07/20 09:11:51;;;;;;;1040.47;948.80;;;;;;;22.48;52.63;96520.09;2089739;28;20567;-58
2023/07/20 09:12:53;;;;;;;1020.75;930.38;;;;;;;22.88;52.43;96523.38;2087111;27;20672;-58
2023/07/20 09:14:08;;;;;;;1030.35;940.78;;;;;;;22.90;51.97;96518.75;2085653;28;20623;-58
2023/07/20 09:16:15;;;;;;;1141.55;999.90;;;;;;;21.92;51.90;96519.91;2095490;27;20557;-60
2023/07/20 09:17:19;;;;;;;1118.68;999.90;;;;;;;22.40;51.42;96520.81;2090709;28;20223;-62
2023/07/20 09:18:25;;;;;;;1069.63;976.67;;;;;;;22.97;50.98;96526.00;2082594;28;20244;-62
2023/07/20 09:19:27;;;;;;;967.88;885.17;;;;;;;23.24;50.69;96524.31;2081038;28;20204;-62
2023/07/20 09:20:31;;;;;;;1092.28;991.38;;;;;;;22.86;50.36;96515.56;2081708;28;20823;-63
2023/07/20 09:21:34;;;;;;;1043.72;951.47;;;;;;;22.82;50.43;96522.16;2084089;28;20257;-62
2023/07/20 09:23:56;;;;;;;1365.28;999.90;;;;;;;23.09;46.63;96517.81;2083440;28;20557;-61
2023/07/20 09:24:58;;;;;;;1196.90;999.90;;;;;;;23.11;45.11;96510.53;2082077;28;20197;-60
2023/07/20 09:26:00;;;;;;;1131.78;997.78;;;;;;;23.47;45.80;96508.72;2082216;28;20192;-60
2023/07/20 09:27:05;;;;;;;995.65;899.05;;;;;;;23.18;46.03;96519.59;2082831;28;20204;-60
2023/07/20 09:28:06;;;;;;;1075.70;966.95;;;;;;;23.53;45.29;96517.94;2076138;28;20225;-61
2023/07/20 09:29:11;;;;;;;936.45;845.00;;;;;;;23.57;44.94;96511.31;2074460;28;20275;-61
2023/07/20 09:30:16;;;;;;;881.00;794.92;;;;;;;23.23;45.61;96514.66;2073655;28;20194;-60
2023/07/20 09:31:20;;;;;;;1100.40;942.38;;;;;;;23.04;46.09;96494.28;2072506;28;20197;-60
2023/07/20 09:32:22;;;;;;;917.50;833.95;;;;;;;22.66;46.04;96518.34;2073250;28;20201;-60
2023/07/20 09:33:26;;;;;;;1024.32;921.13;;;;;;;23.20;46.04;96512.31;2073837;28;20259;-62
2023/07/20 09:34:32;;;;;;;939.08;848.97;;;;;;;23.19;45.28;96512.47;2075923;28;20204;-60
2023/07/20 09:35:36;;;;;;;1029.78;926.47;;;;;;;23.56;45.73;96514.13;2074884;28;20194;-59
2023/07/20 09:36:45;;;;;;;702.92;641.80;;;;;;;23.42;45.20;96518.16;2076316;28;20537;-60
2023/07/20 09:37:57;;;;;;;852.20;779.20;;;;;;;23.44;45.48;96526.88;2073719;28;20213;-60
2023/07/20 09:39:03;;;;;;;1607.78;897.63;;;;;;;23.43;45.81;96519.84;2073858;28;20205;-60
2023/07/20 09:40:09;;;;;;;760.63;686.35;;;;;;;23.09;46.04;96520.47;2070786;28;20201;-60
2023/07/20 09:41:15;;;;;;;2250.00;999.90;;;;;;;23.38;46.03;96516.81;2073776;28;20209;-60
2023/07/20 09:42:24;;;;;;;763.67;697.33;;;;;;;23.58;44.96;96510.31;2072919;28;20655;-60
2023/07/20 09:43:30;;;;;;;772.40;704.55;;;;;;;23.45;44.98;96518.72;2073439;28;20262;-60
2023/07/20 09:44:32;;;;;;;1855.88;936.78;;;;;;;23.06;45.59;96502.97;2074945;28;20285;-60
2023/07/20 09:45:40;;;;;;;908.13;803.63;;;;;;;23.26;46.38;96513.50;2073743;28;20201;-60
2023/07/20 09:46:59;;;;;;;740.80;626.30;;;;;;;23.45;46.27;96509.88;2074965;28;20264;-60
2023/07/20 09:48:11;;;;;;;1567.32;859.90;;;;;;;23.61;45.81;96510.00;2070123;28;20222;-60
2023/07/20 09:49:17;;;;;;;2250.00;999.90;;;;;;;23.53;45.16;96512.63;2073506;28;20212;-60
2023/07/20 09:50:23;;;;;;;870.85;798.53;;;;;;;23.00;44.78;96514.22;2074122;28;20227;-60
2023/07/20 09:51:28;;;;;;;2250.00;999.90;;;;;;;23.52;45.21;96518.09;2075112;28;20288;-60
2023/07/20 09:52:31;;;;;;;2250.00;999.90;;;;;;;24.02;44.56;96509.50;2074978;28;20198;-60
2023/07/20 09:53:36;;;;;;;2250.00;999.90;;;;;;;24.41;44.47;96505.59;2075821;28;20205;-60
2023/07/20 09:54:38;;;;;;;1184.00;830.28;;;;;;;24.62;44.02;96508.69;2075775;28;20205;-60
2023/07/20 09:55:42;;;;;;;2250.00;999.90;;;;;;;24.80;43.94;96506.97;2074644;28;20285;-60
2023/07/20 09:56:45;;;;;;;880.03;804.03;;;;;;;24.55;44.35;96505.00;2074531;28;20572;-61
2023/07/20 09:57:47;;;;;;;2250.00;999.90;;;;;;;24.94;44.24;96504.50;2074690;28;20287;-62
2023/07/20 09:58:48;;;;;;;2250.00;999.90;;;;;;;24.93;44.64;96507.34;2074923;28;20205;-61
2023/07/20 09:59:50;;;;;;;846.97;776.10;;;;;;;24.84;43.53;96509.16;2074190;28;20323;-62
2023/07/20 10:00:57;;;;;;;889.20;813.13;;;;;;;24.54;43.43;96505.16;2073383;28;20217;-61
2023/07/20 10:02:01;;;;;;;982.80;897.22;;;;;;;24.70;43.63;96502.59;2074442;28;20689;-62
2023/07/20 10:03:06;;;;;;;895.80;819.70;;;;;;;24.91;43.43;96502.19;2073368;28;20816;-62
2023/07/20 10:04:09;;;;;;;1193.88;839.00;;;;;;;25.25;43.70;96505.75;2074634;28;20754;-62
2023/07/20 10:05:13;;;;;;;897.90;820.55;;;;;;;25.20;43.51;96503.56;2074118;28;20256;-62
2023/07/20 10:06:20;;;;;;;917.30;837.97;;;;;;;24.90;43.46;96505.84;2072972;28;20281;-62
2023/07/20 10:07:26;;;;;;;905.47;827.83;;;;;;;24.83;43.26;96506.66;2074573;28;20198;-62
2023/07/20 10:08:29;;;;;;;872.13;797.15;;;;;;;25.14;42.76;96508.72;2072903;28;20222;-62
2023/07/20 10:09:38;;;;;;;1064.50;966.50;;;;;;;25.23;42.00;96503.25;2074344;28;20228;-62
2023/07/20 10:10:44;;;;;;;739.80;677.00;;;;;;;25.56;40.58;96502.47;2075251;28;20224;-62
2023/07/20 10:11:50;;;;;;;675.33;617.17;;;;;;;25.69;39.83;96493.97;2073080;28;20190;-62
2023/07/20 10:13:26;;;;;;;2250.00;999.90;;;;;;;25.54;39.57;96508.00;2071747;28;20918;-62
2023/07/20 10:14:30;;;;;;;635.42;574.28;;;;;;;25.66;39.06;96507.66;2072770;28;20848;-61
2023/07/20 10:16:02;;;;;;;669.38;609.72;;;;;;;25.33;40.36;96503.13;2074363;28;20194;-62
2023/07/20 10:17:06;;;;;;;1363.30;736.97;;;;;;;24.86;40.83;96511.66;2069250;28;20231;-62
2023/07/20 10:18:12;;;;;;;2250.00;999.90;;;;;;;24.81;40.85;96505.97;2074076;28;20320;-62
2023/07/20 10:19:42;;;;;;;2250.00;999.90;;;;;;;24.97;40.88;96502.53;2073213;28;20193;-61
2023/07/20 10:20:53;;;;;;;2250.00;999.90;;;;;;;25.11;40.83;96501.88;2072741;28;20244;-61
2023/07/20 10:22:10;;;;;;;2250.00;999.90;;;;;;;25.26;40.47;96502.91;2070402;28;20206;-62
2023/07/20 10:23:13;;;;;;;2250.00;999.90;;;;;;;24.43;40.46;96498.28;2070554;28;20264;-61
2023/07/20 10:24:17;;;;;;;2250.00;999.90;;;;;;;24.60;40.68;96499.19;2073701;28;20210;-61
2023/07/20 10:25:22;;;;;;;968.58;873.55;;;;;;;24.62;41.17;96489.19;2073314;28;20201;-61
2023/07/20 10:26:24;;;;;;;2250.00;999.90;;;;;;;24.26;40.42;96487.53;2072996;28;20236;-61
2023/07/20 10:27:26;;;;;;;2250.00;999.90;;;;;;;24.45;41.15;96490.94;2073621;28;20255;-61
2023/07/20 10:28:28;;;;;;;2250.00;999.90;;;;;;;24.46;41.15;96495.28;2074470;28;20294;-61
2023/07/20 10:29:30;;;;;;;2250.00;999.90;;;;;;;24.72;41.31;96494.41;2073659;28;20559;-61
2023/07/20 10:30:35;;;;;;;1256.40;888.30;;;;;;;25.25;40.93;96479.91;2074075;28;20205;-62
2023/07/20 10:31:37;;;;;;;2250.00;999.90;;;;;;;25.21;40.65;96491.88;2074547;28;20239;-62
2023/07/20 10:32:41;;;;;;;2250.00;999.90;;;;;;;25.75;40.21;96490.66;2073253;28;20202;-62
2023/07/20 10:33:44;;;;;;;2250.00;999.90;;;;;;;25.53;39.92;96489.47;2073782;28;20221;-62
2023/07/20 10:34:55;;;;;;;2250.00;999.90;;;;;;;25.56;40.30;96487.28;2071187;28;20194;-62
2023/07/20 10:36:01;;;;;;;2250.00;999.90;;;;;;;25.59;40.06;96488.78;2067577;28;20589;-62
2023/07/20 10:37:03;;;;;;;2250.00;999.90;;;;;;;25.83;40.34;96492.47;2066919;28;20194;-62
2023/07/20 10:38:05;;;;;;;2250.00;999.90;;;;;;;25.58;39.69;96490.66;2064135;28;20333;-61
2023/07/20 10:39:22;;;;;;;2250.00;999.90;;;;;;;25.87;39.75;96491.13;2067751;28;20280;-62
2023/07/20 10:40:28;;;;;;;2250.00;999.90;;;;;;;25.63;38.86;96482.09;2064408;28;20563;-62
2023/07/20 10:41:35;;;;;;;2250.00;999.90;;;;;;;25.89;39.24;96489.97;2067860;28;20205;-62
2023/07/20 10:42:36;;;;;;;2250.00;999.90;;;;;;;26.07;38.90;96484.44;2067483;28;20202;-62
2023/07/20 10:43:45;;;;;;;2250.00;999.90;;;;;;;26.04;37.95;96483.91;2068525;28;20629;-62
2023/07/20 10:44:47;;;;;;;2250.00;999.90;;;;;;;26.00;38.07;96485.25;2068150;28;20226;-62
2023/07/20 10:45:51;;;;;;;2250.00;999.90;;;;;;;25.98;38.23;96480.09;2066931;28;20372;-62
2023/07/20 10:47:02;;;;;;;2250.00;999.90;;;;;;;25.46;38.63;96480.41;2067879;28;20567;-62
2023/07/20 10:48:14;;;;;;;2250.00;999.90;;;;;;;25.95;39.09;96476.91;2066397;28;20620;-62
2023/07/20 10:49:16;;;;;;;2250.00;999.90;;;;;;;26.08;39.33;96480.75;2067164;28;20222;-62
2023/07/20 10:50:21;;;;;;;2250.00;999.90;;;;;;;26.28;38.84;96475.03;2068212;28;20292;-62
2023/07/20 10:51:24;;;;;;;2250.00;999.90;;;;;;;26.40;38.47;96470.97;2064907;28;20896;-62
2023/07/20 10:52:26;;;;;;;2250.00;999.90;;;;;;;26.35;38.40;96475.19;2064329;28;20260;-62
2023/07/20 10:53:27;;;;;;;2250.00;999.90;;;;;;;26.28;37.78;96469.66;2064745;28;20209;-62
2023/07/20 10:54:29;;;;;;;2250.00;999.90;;;;;;;26.57;37.92;96473.59;2066011;28;20198;-62
2023/07/20 10:55:32;;;;;;;2250.00;999.90;;;;;;;26.72;37.86;96471.84;2067982;28;20777;-62
2023/07/20 10:56:34;;;;;;;2250.00;999.90;;;;;;;25.96;38.78;96470.56;2067912;28;20207;-62
2023/07/20 10:57:35;;;;;;;2250.00;999.90;;;;;;;25.91;39.15;96469.25;2067388;28;20202;-62
2023/07/20 10:58:37;;;;;;;2250.00;999.90;;;;;;;26.60;38.62;96465.22;2064621;28;20213;-62
2023/07/20 10:59:39;;;;;;;2250.00;999.90;;;;;;;27.23;38.38;96472.47;2066181;28;20203;-62
2023/07/20 11:00:59;;;;;;;2250.00;999.90;;;;;;;27.47;37.67;96469.63;2069374;28;20214;-62
2023/07/20 11:02:05;;;;;;;2250.00;999.90;;;;;;;27.39;37.53;96464.34;2066770;28;20328;-62
2023/07/20 11:03:07;;;;;;;2250.00;999.90;;;;;;;27.20;37.31;96470.97;2066186;28;20696;-62
2023/07/20 11:04:09;;;;;;;2250.00;999.90;;;;;;;27.08;38.38;96470.53;2068915;28;20214;-62
2023/07/20 11:05:43;;;;;;;2250.00;999.90;;;;;;;26.50;38.62;96476.13;2068506;28;20225;-62
2023/07/20 11:06:46;;;;;;;2250.00;999.90;;;;;;;26.42;38.37;96462.78;2060124;28;20201;-62
2023/07/20 11:07:47;;;;;;;2250.00;999.90;;;;;;;26.53;38.44;96470.44;2064830;28;20221;-62
2023/07/20 11:08:55;;;;;;;2250.00;999.90;;;;;;;26.74;37.91;96463.69;2068540;28;20601;-62
2023/07/20 11:10:12;;;;;;;2250.00;999.90;;;;;;;26.94;38.09;96473.97;2068575;28;20236;-62
2023/07/20 11:11:26;;;;;;;2250.00;999.90;;;;;;;27.05;38.06;96470.88;2066706;28;20424;-62
2023/07/20 11:12:27;;;;;;;2250.00;999.90;;;;;;;27.16;37.43;96469.63;2068314;28;20688;-62
2023/07/20 11:13:31;;;;;;;2250.00;999.90;;;;;;;26.83;37.76;96473.34;2068894;28;20285;-62
2023/07/20 11:14:34;;;;;;;2250.00;999.90;;;;;;;26.04;38.12;96473.22;2068878;28;20202;-62
2023/07/20 11:16:03;;;;;;;2250.00;999.90;;;;;;;26.03;37.95;96480.41;2069050;28;20240;-62
2023/07/20 11:17:15;;;;;;;2250.00;999.90;;;;;;;26.06;37.85;96476.59;2068271;28;20229;-62
2023/07/20 11:18:17;;;;;;;2250.00;999.90;;;;;;;25.56;38.47;96471.25;2067639;28;20355;-62
2023/07/20 11:19:25;;;;;;;2250.00;999.90;;;;;;;25.96;38.43;96466.03;2069198;28;20293;-62
2023/07/20 11:20:35;;;;;;;2250.00;999.90;;;;;;;26.40;38.54;96472.84;2067826;28;20256;-62
2023/07/20 11:21:40;;;;;;;2250.00;999.90;;;;;;;26.80;38.78;96472.88;2070681;28;20768;-62
2023/07/20 11:23:01;;;;;;;2250.00;999.90;;;;;;;26.69;37.63;96466.84;2066790;28;20343;-62
2023/07/20 11:24:04;;;;;;;2250.00;999.90;;;;;;;26.68;38.25;96470.53;2068000;28;20241;-62
2023/07/20 11:25:10;;;;;;;2250.00;999.90;;;;;;;27.00;37.92;96467.91;2067622;28;20198;-62
2023/07/20 11:26:12;;;;;;;2250.00;999.90;;;;;;;26.88;38.19;96459.41;2067150;28;20203;-62
2023/07/20 11:27:14;;;;;;;2250.00;999.90;;;;;;;26.98;38.15;96461.88;2067417;28;20238;-62
2023/07/20 11:28:16;;;;;;;2250.00;999.90;;;;;;;27.25;37.59;96465.06;2066975;28;20218;-62
2023/07/20 11:29:22;;;;;;;2250.00;999.90;;;;;;;26.92;38.13;96454.53;2067508;28;20198;-62
2023/07/20 11:30:34;;;;;;;2250.00;999.90;;;;;;;27.86;37.17;96457.06;2068852;28;20248;-62
2023/07/20 11:31:38;;;;;;;2250.00;999.90;;;;;;;27.78;36.32;96459.81;2068304;28;20205;-62
2023/07/20 11:32:47;;;;;;;2250.00;999.90;;;;;;;27.75;36.78;96452.16;2064096;28;20209;-62
2023/07/20 11:33:49;;;;;;;2250.00;999.90;;;;;;;27.57;37.23;96453.31;2067312;28;20574;-62
2023/07/20 11:34:51;;;;;;;2250.00;999.90;;;;;;;27.76;36.71;96461.88;2068200;28;20204;-62
2023/07/20 11:35:53;;;;;;;2250.00;999.90;;;;;;;27.55;37.02;96455.31;2069597;28;20397;-62
2023/07/20 11:36:54;;;;;;;2250.00;999.90;;;;;;;26.43;36.95;96453.75;2067496;28;20666;-62
2023/07/20 11:37:59;;;;;;;2250.00;999.90;;;;;;;26.22;37.89;96457.81;2065772;28;20218;-62
2023/07/20 11:39:00;;;;;;;2250.00;999.90;;;;;;;26.14;37.58;96449.81;2067131;28;20580;-62
2023/07/20 11:40:02;;;;;;;2250.00;999.90;;;;;;;26.72;37.26;96457.63;2064396;28;20236;-62
2023/07/20 11:41:04;;;;;;;2250.00;999.90;;;;;;;27.17;36.69;96449.88;2066341;28;20190;-58
2023/07/20 11:42:06;;;;;;;2250.00;999.90;;;;;;;27.83;37.04;96452.91;2064568;28;20597;-58
2023/07/20 11:43:09;;;;;;;2250.00;999.90;;;;;;;27.47;35.61;96452.72;2069607;28;20226;-58
2023/07/20 11:44:18;;;;;;;2250.00;999.90;;;;;;;27.59;35.75;96448.59;2070866;28;20210;-58
2023/07/20 11:45:20;;;;;;;2250.00;999.90;;;;;;;27.38;35.87;96446.56;2068652;28;20202;-58
2023/07/20 11:46:21;;;;;;;2250.00;999.90;;;;;;;27.85;35.93;96434.75;2069987;28;20248;-58
2023/07/20 11:47:29;;;;;;;2250.00;999.90;;;;;;;27.77;36.00;96448.28;2063713;28;20198;-58
2023/07/20 11:48:30;;;;;;;2250.00;999.90;;;;;;;27.52;36.22;96455.69;2065860;28;20222;-58
2023/07/20 11:49:40;;;;;;;2250.00;999.90;;;;;;;27.27;36.61;96452.31;2069532;28;20198;-58
2023/07/20 11:50:42;;;;;;;2250.00;999.90;;;;;;;26.87;36.79;96441.69;2069015;28;20228;-58
2023/07/20 11:51:43;;;;;;;2250.00;999.90;;;;;;;27.16;37.27;96446.38;2069180;28;20202;-57
2023/07/20 11:52:45;;;;;;;2250.00;999.90;;;;;;;27.67;36.52;96435.09;2063582;28;20265;-59
2023/07/20 11:53:47;;;;;;;2250.00;999.90;;;;;;;27.50;35.73;96441.63;2064405;28;20195;-58
2023/07/20 11:54:49;;;;;;;2250.00;999.90;;;;;;;27.66;36.20;96443.34;2077898;28;20567;-58
2023/07/20 11:55:52;;;;;;;2250.00;999.90;;;;;;;27.40;35.77;96427.63;2071710;28;20676;-58
2023/07/20 11:56:55;;;;;;;2250.00;999.90;;;;;;;27.82;36.06;96440.50;2064556;28;20195;-58
2023/07/20 11:58:07;;;;;;;2250.00;999.90;;;;;;;27.41;35.58;96443.53;2066520;28;20226;-58
2023/07/20 11:59:08;;;;;;;2250.00;999.90;;;;;;;27.65;35.48;96436.31;2067475;28;20856;-58
2023/07/20 12:00:11;;;;;;;2250.00;999.90;;;;;;;27.02;35.91;96423.84;2065806;28;20210;-58
2023/07/20 12:01:13;;;;;;;2250.00;999.90;;;;;;;27.73;35.56;96436.25;2067547;28;20199;-59
2023/07/20 12:02:15;;;;;;;2250.00;999.90;;;;;;;28.39;34.93;96429.38;2064369;28;20589;-58
2023/07/20 12:03:18;;;;;;;2250.00;999.90;;;;;;;27.50;34.68;96421.03;2064660;28;20850;-57
2023/07/20 12:04:22;;;;;;;2250.00;999.90;;;;;;;27.73;35.16;96419.31;2064289;28;20719;-57
2023/07/20 12:05:25;;;;;;;2250.00;999.90;;;;;;;27.88;35.22;96422.03;2064517;28;20627;-58
2023/07/20 12:06:28;;;;;;;2250.00;999.90;;;;;;;28.01;35.46;96422.19;2068142;28;20623;-57
2023/07/20 12:07:36;;;;;;;2250.00;999.90;;;;;;;27.60;34.46;96422.59;2067701;28;20801;-58
2023/07/20 12:08:40;;;;;;;2250.00;999.90;;;;;;;27.67;34.83;96421.69;2068067;28;20625;-57
2023/07/20 12:09:42;;;;;;;2250.00;999.90;;;;;;;27.05;34.18;96422.66;2067454;28;20207;-57
2023/07/20 12:10:52;;;;;;;2250.00;999.90;;;;;;;27.24;33.62;96433.94;2067729;28;20229;-58
2023/07/20 12:11:53;;;;;;;2250.00;999.90;;;;;;;27.70;33.86;96425.88;2067256;28;20194;-57
2023/07/20 12:13:01;;;;;;;2250.00;999.90;;;;;;;27.80;31.90;96420.25;2069015;28;20225;-57
2023/07/20 12:14:04;;;;;;;2250.00;999.90;;;;;;;27.76;32.05;96425.16;2068663;28;20198;-58
2023/07/20 12:15:29;;;;;;;2250.00;999.90;;;;;;;28.65;31.98;96427.00;2066152;28;21097;-57
2023/07/20 12:16:30;;;;;;;2250.00;999.90;;;;;;;28.53;32.73;96423.13;2067080;28;20232;-57
2023/07/20 12:17:32;;;;;;;2250.00;999.90;;;;;;;27.62;33.06;96417.91;2066222;28;20222;-58
2023/07/20 12:18:38;;;;;;;2250.00;999.90;;;;;;;27.73;33.03;96420.16;2066248;28;20233;-58
2023/07/20 12:19:40;;;;;;;2250.00;999.90;;;;;;;28.04;33.28;96416.50;2067897;28;20201;-58
2023/07/20 12:20:43;;;;;;;2250.00;999.90;;;;;;;28.29;33.15;96418.91;2067595;28;20197;-58
2023/07/20 12:21:45;;;;;;;2250.00;999.90;;;;;;;27.96;34.19;96417.41;2067654;28;20244;-58
2023/07/20 12:22:48;;;;;;;2250.00;999.90;;;;;;;27.91;34.09;96419.81;2067812;28;20279;-57
2023/07/20 12:23:50;;;;;;;2250.00;999.90;;;;;;;27.89;34.24;96418.31;2066076;28;20197;-58
2023/07/20 12:24:53;;;;;;;2250.00;999.90;;;;;;;28.07;34.08;96413.44;2063909;28;20330;-58
2023/07/20 12:25:56;;;;;;;2250.00;999.90;;;;;;;27.81;34.25;96413.88;2066461;28;20609;-58
2023/07/20 12:26:58;;;;;;;2250.00;999.90;;;;;;;28.44;34.12;96414.38;2067835;28;20201;-58
2023/07/20 12:28:14;;;;;;;2250.00;999.90;;;;;;;28.97;33.50;96413.38;2068045;28;20222;-58
2023/07/20 12:29:15;;;;;;;2250.00;999.90;;;;;;;29.37;33.71;96411.09;2068828;28;20221;-58
2023/07/20 12:30:17;;;;;;;2250.00;999.90;;;;;;;28.77;33.49;96405.06;2063942;28;20202;-59
2023/07/20 12:31:18;;;;;;;2266.67;999.90;;;;;;;29.15;34.45;96407.53;2067346;28;20282;-59
2023/07/20 12:32:20;;;;;;;2250.00;999.90;;;;;;;29.04;33.25;96400.84;2068597;28;20956;-58
2023/07/20 12:33:22;;;;;;;2250.00;999.90;;;;;;;29.09;33.18;96402.94;2063525;28;20783;-58
2023/07/20 12:34:24;;;;;;;2266.67;999.90;;;;;;;29.52;32.88;96399.44;2066632;28;20206;-59
2023/07/20 12:35:25;;;;;;;2266.67;999.90;;;;;;;29.72;32.91;96407.66;2067365;28;20442;-59